createdAt,value
2022-12-25T00:00:20.860Z,4.62
2022-12-25T00:02:18.039Z,4.53
2022-12-25T00:04:17.978Z,4.46
2022-12-25T00:06:17.942Z,4.46
2022-12-25T00:08:18.029Z,4.49
2022-12-25T00:12:04.737Z,4.5
2022-12-25T00:14:04.764Z,4.48
2022-12-25T00:16:04.815Z,4.49
2022-12-25T00:18:04.737Z,4.35
2022-12-25T00:20:04.711Z,4.43
2022-12-25T00:22:04.716Z,4.52
2022-12-25T00:24:04.728Z,4.52
2022-12-25T00:27:16.146Z,4.42
2022-12-25T00:29:16.080Z,4.31
2022-12-25T00:31:16.143Z,4.19
2022-12-25T00:33:16.115Z,4.2
2022-12-25T00:35:16.137Z,4.23
2022-12-25T00:37:16.094Z,4.3
2022-12-25T00:39:16.107Z,4.45
2022-12-25T00:41:34.838Z,4.36
2022-12-25T00:43:34.832Z,4.29
2022-12-25T00:45:35.092Z,4.24
2022-12-25T00:47:34.841Z,4.21
2022-12-25T00:49:34.812Z,3.79
2022-12-25T00:51:34.820Z,4.03
2022-12-25T00:53:34.903Z,4.12
2022-12-25T00:55:34.802Z,4.14
2022-12-25T00:57:33.717Z,4.11
2022-12-25T00:59:33.708Z,4.09
2022-12-25T01:01:33.846Z,4.04
2022-12-25T01:03:33.684Z,3.51
2022-12-25T01:05:33.743Z,3.46
2022-12-25T01:07:33.692Z,3.76
2022-12-25T01:09:33.700Z,3.85
2022-12-25T01:11:58.625Z,3.86
2022-12-25T01:13:58.612Z,3.85
2022-12-25T01:15:58.643Z,3.93
2022-12-25T01:18:00.650Z,3.89
2022-12-25T01:19:58.773Z,3.93
2022-12-25T01:21:58.711Z,3.8
2022-12-25T01:23:58.697Z,3.72
2022-12-25T01:27:37.634Z,3.81
2022-12-25T01:29:37.607Z,3.79
2022-12-25T01:31:37.632Z,3.82
2022-12-25T01:33:37.610Z,3.92
2022-12-25T01:35:37.618Z,3.84
2022-12-25T01:37:37.638Z,3.76
2022-12-25T01:39:37.583Z,3.8
2022-12-25T01:42:18.078Z,3.48
2022-12-25T01:44:18.089Z,3.21
2022-12-25T01:46:18.116Z,3.41
2022-12-25T01:48:18.071Z,3.61
2022-12-25T01:50:18.063Z,3.73
2022-12-25T01:52:23.412Z,3.69
2022-12-25T01:54:18.048Z,3.75
2022-12-25T01:57:51.471Z,3.76
2022-12-25T01:59:51.513Z,3.77
2022-12-25T02:01:51.642Z,3.54
2022-12-25T02:03:51.507Z,3.56
2022-12-25T02:05:51.520Z,3.62
2022-12-25T02:07:51.456Z,3.61
2022-12-25T02:09:51.486Z,3.56
2022-12-25T02:12:45.972Z,3.54
2022-12-25T02:14:45.975Z,3.58
2022-12-25T02:16:56.506Z,3.51
2022-12-25T02:18:45.959Z,3.55
2022-12-25T02:20:46.018Z,3.54
2022-12-25T02:22:45.987Z,3.45
2022-12-25T02:24:45.957Z,3.41
2022-12-25T02:28:08.344Z,3.35
2022-12-25T02:30:08.340Z,3.43
2022-12-25T02:32:08.350Z,3.44
2022-12-25T02:34:08.300Z,3.47
2022-12-25T02:36:08.329Z,3.38
2022-12-25T02:38:08.324Z,3.34
2022-12-25T02:40:08.319Z,3.25
2022-12-25T02:43:03.169Z,3.23
2022-12-25T02:45:03.189Z,3.09
2022-12-25T02:47:03.181Z,3.14
2022-12-25T02:49:03.152Z,3.16
2022-12-25T02:51:03.267Z,3.12
2022-12-25T02:53:03.172Z,3.02
2022-12-25T02:55:03.149Z,2.86
2022-12-25T02:58:07.379Z,2.82
2022-12-25T03:00:07.520Z,2.91
2022-12-25T03:02:07.609Z,2.54
2022-12-25T03:04:07.377Z,2.66
2022-12-25T03:06:07.415Z,2.79
2022-12-25T03:08:07.404Z,2.77
2022-12-25T03:10:07.364Z,2.68
2022-12-25T03:13:35.549Z,2.45
2022-12-25T03:15:35.346Z,2.2
2022-12-25T03:17:35.385Z,2.28
2022-12-25T03:19:35.354Z,2.37
2022-12-25T03:21:35.361Z,2.47
2022-12-25T03:23:35.380Z,2.53
2022-12-25T03:25:35.345Z,2.52
2022-12-25T03:28:35.751Z,2.43
2022-12-25T03:30:35.782Z,2.34
2022-12-25T03:32:35.765Z,2.31
2022-12-25T03:34:35.778Z,2.2
2022-12-25T03:36:35.799Z,2.35
2022-12-25T03:38:35.752Z,2.43
2022-12-25T03:40:35.779Z,2.41
2022-12-25T03:43:34.654Z,2.52
2022-12-25T03:45:34.654Z,2.34
2022-12-25T03:47:34.664Z,2.42
2022-12-25T03:49:34.649Z,2.47
2022-12-25T03:51:34.698Z,2.45
2022-12-25T03:53:34.635Z,2.5
2022-12-25T03:55:34.641Z,2.5
2022-12-25T03:57:34.669Z,2.5
2022-12-25T03:58:49.073Z,2.46
2022-12-25T04:00:49.066Z,2.47
2022-12-25T04:02:49.210Z,2.44
2022-12-25T04:04:49.060Z,2.45
2022-12-25T04:06:49.111Z,2.41
2022-12-25T04:08:49.073Z,2.4
2022-12-25T04:10:49.094Z,2.42
2022-12-25T04:14:10.216Z,2.21
2022-12-25T04:16:10.274Z,2.21
2022-12-25T04:18:10.173Z,2.36
2022-12-25T04:20:10.223Z,2.34
2022-12-25T04:22:10.212Z,2.21
2022-12-25T04:24:10.186Z,2.28
2022-12-25T04:26:10.177Z,2.38
2022-12-25T04:29:42.025Z,1.54
2022-12-25T04:31:42.125Z,1.75
2022-12-25T04:33:41.981Z,1.91
2022-12-25T04:35:41.979Z,1.84
2022-12-25T04:37:42.008Z,1.74
2022-12-25T04:39:41.991Z,1.89
2022-12-25T04:41:41.984Z,1.9
2022-12-25T04:44:10.342Z,1.83
2022-12-25T04:46:10.488Z,1.92
2022-12-25T04:48:10.348Z,2.01
2022-12-25T04:50:10.340Z,1.96
2022-12-25T04:52:10.351Z,0.65
2022-12-25T04:54:10.338Z,0.99
2022-12-25T04:56:10.403Z,1.04
2022-12-25T04:58:10.334Z,1.1
2022-12-25T04:59:52.305Z,0.52
2022-12-25T05:01:52.453Z,0.79
2022-12-25T05:03:52.351Z,1.12
2022-12-25T05:05:52.394Z,1.22
2022-12-25T05:07:52.299Z,1.45
2022-12-25T05:09:52.309Z,1.44
2022-12-25T05:11:52.282Z,1.49
2022-12-25T05:14:38.656Z,0.51
2022-12-25T05:16:38.656Z,0.17
2022-12-25T05:18:38.681Z,0.65
2022-12-25T05:20:40.362Z,0.87
2022-12-25T05:22:38.633Z,0.96
2022-12-25T05:24:38.646Z,1.16
2022-12-25T05:26:38.638Z,1.28
2022-12-25T05:30:18.924Z,1.29
2022-12-25T05:32:18.895Z,1.02
2022-12-25T05:34:18.952Z,1.13
2022-12-25T05:36:18.918Z,1.25
2022-12-25T05:38:18.914Z,1.29
2022-12-25T05:40:18.899Z,1.22
2022-12-25T05:42:18.859Z,1.2
2022-12-25T05:44:45.557Z,0.76
2022-12-25T05:46:45.598Z,0.96
2022-12-25T05:48:45.544Z,1.08
2022-12-25T05:50:45.562Z,0.67
2022-12-25T05:52:45.532Z,0.84
2022-12-25T05:54:45.531Z,0.77
2022-12-25T05:56:45.537Z,0.83
2022-12-25T05:58:45.533Z,0.75
2022-12-25T06:00:24.573Z,0.92
2022-12-25T06:02:24.828Z,0.46
2022-12-25T06:04:24.591Z,0.68
2022-12-25T06:06:24.566Z,0.87
2022-12-25T06:08:24.534Z,1
2022-12-25T06:10:24.664Z,1
2022-12-25T06:12:24.800Z,1.06
2022-12-25T06:15:34.298Z,1.02
2022-12-25T06:17:34.315Z,1.14
2022-12-25T06:19:34.324Z,0.99
2022-12-25T06:21:34.315Z,1.04
2022-12-25T06:23:34.361Z,1.06
2022-12-25T06:25:34.286Z,1
2022-12-25T06:27:34.358Z,0.94
2022-12-25T06:30:53.436Z,1.06
2022-12-25T06:32:53.392Z,1.15
2022-12-25T06:34:53.410Z,1.22
2022-12-25T06:36:53.414Z,1.2
2022-12-25T06:38:53.386Z,0.99
2022-12-25T06:40:53.428Z,0.98
2022-12-25T06:42:53.371Z,1.2
2022-12-25T06:45:59.525Z,0.83
2022-12-25T06:47:59.372Z,1.08
2022-12-25T06:49:59.421Z,1.19
2022-12-25T06:51:59.726Z,1.24
2022-12-25T06:53:59.381Z,1.33
2022-12-25T06:55:59.571Z,0.44
2022-12-25T06:57:59.406Z,0.8
2022-12-25T07:01:08.276Z,1.14
2022-12-25T07:03:08.250Z,1.08
2022-12-25T07:05:08.188Z,1.08
2022-12-25T07:07:09.137Z,1
2022-12-25T07:09:08.252Z,1.29
2022-12-25T07:11:08.172Z,1.44
2022-12-25T07:13:08.197Z,1.4
2022-12-25T07:16:14.684Z,1.63
2022-12-25T07:18:14.579Z,1.39
2022-12-25T07:20:14.572Z,1.7
2022-12-25T07:22:14.650Z,1.75
2022-12-25T07:24:14.685Z,1.3
2022-12-25T07:26:14.610Z,1.56
2022-12-25T07:28:14.613Z,1.47
2022-12-25T07:31:34.106Z,2.03
2022-12-25T07:33:34.019Z,1.95
2022-12-25T07:35:33.972Z,2.06
2022-12-25T07:37:33.991Z,2.26
2022-12-25T07:39:34.001Z,1.98
2022-12-25T07:41:34.004Z,2.02
2022-12-25T07:43:34.072Z,1.88
2022-12-25T07:46:14.688Z,2.04
2022-12-25T07:48:16.753Z,2.38
2022-12-25T07:50:14.716Z,2.35
2022-12-25T07:52:14.599Z,2.57
2022-12-25T07:54:14.870Z,2.68
2022-12-25T07:56:14.651Z,2.9
2022-12-25T07:58:18.540Z,2.79
2022-12-25T08:01:29.127Z,2.47
2022-12-25T08:03:29.233Z,2.66
2022-12-25T08:05:29.107Z,2.46
2022-12-25T08:07:29.069Z,2.15
2022-12-25T08:09:29.105Z,2.21
2022-12-25T08:11:29.100Z,2.49
2022-12-25T08:13:29.005Z,2.75
2022-12-25T08:16:57.026Z,3.11
2022-12-25T08:18:57.067Z,3.34
2022-12-25T08:20:57.043Z,3.39
2022-12-25T08:22:57.024Z,3.19
2022-12-25T08:24:57.061Z,2.9
2022-12-25T08:26:57.033Z,2.84
2022-12-25T08:28:57.028Z,2.75
2022-12-25T08:31:49.668Z,3.05
2022-12-25T08:33:49.787Z,2.83
2022-12-25T08:35:49.709Z,3.24
2022-12-25T08:37:49.844Z,3.48
2022-12-25T08:39:49.711Z,3.65
2022-12-25T08:41:49.726Z,3.73
2022-12-25T08:43:49.818Z,3.74
2022-12-25T08:46:51.049Z,3.46
2022-12-25T08:48:51.205Z,3.55
2022-12-25T08:50:50.950Z,3.56
2022-12-25T08:52:50.924Z,3.13
2022-12-25T08:54:50.997Z,3.2
2022-12-25T08:56:50.975Z,3.29
2022-12-25T08:58:50.956Z,3.65
2022-12-25T09:02:49.025Z,3.88
2022-12-25T09:04:49.016Z,4.09
2022-12-25T09:06:48.976Z,4.05
2022-12-25T09:08:49.928Z,4.3
2022-12-25T09:10:48.968Z,4.58
2022-12-25T09:12:48.945Z,4.5
2022-12-25T09:14:49.043Z,4.35
2022-12-25T09:17:12.590Z,4.38
2022-12-25T09:19:12.517Z,4.16
2022-12-25T09:21:12.110Z,4.4
2022-12-25T09:23:14.256Z,4.11
2022-12-25T09:25:12.144Z,4.24
2022-12-25T09:27:12.102Z,4.4
2022-12-25T09:29:12.204Z,4.36
2022-12-25T09:32:25.927Z,4.57
2022-12-25T09:34:25.951Z,4.45
2022-12-25T09:36:25.939Z,4.83
2022-12-25T09:38:25.935Z,5.38
2022-12-25T09:40:25.892Z,5.56
2022-12-25T09:42:25.931Z,5.41
2022-12-25T09:44:25.927Z,5.31
2022-12-25T09:48:15.000Z,5.32
2022-12-25T09:50:15.260Z,4.55
2022-12-25T09:52:15.028Z,4.54
2022-12-25T09:54:15.023Z,4.83
2022-12-25T09:56:14.998Z,5.01
2022-12-25T09:58:14.988Z,4.82
2022-12-25T10:00:15.250Z,5.26
2022-12-25T10:03:26.620Z,5.96
2022-12-25T10:05:26.591Z,6.22
2022-12-25T10:07:26.525Z,6.46
2022-12-25T10:09:26.687Z,6.39
2022-12-25T10:11:26.532Z,6.34
2022-12-25T10:13:26.522Z,6.3
2022-12-25T10:15:26.592Z,5.99
2022-12-25T10:18:10.894Z,6.04
2022-12-25T10:20:10.931Z,6.21
2022-12-25T10:22:10.994Z,6.41
2022-12-25T10:24:11.083Z,6.58
2022-12-25T10:26:10.952Z,6.52
2022-12-25T10:28:10.966Z,6.73
2022-12-25T10:30:11.007Z,6.88
2022-12-25T10:33:17.545Z,6.82
2022-12-25T10:35:17.241Z,6.63
2022-12-25T10:37:17.226Z,6.78
2022-12-25T10:39:17.557Z,6.74
2022-12-25T10:41:17.394Z,6.75
2022-12-25T10:43:17.216Z,6.95
2022-12-25T10:45:17.293Z,6.98
2022-12-25T10:48:20.856Z,7.1
2022-12-25T10:50:20.899Z,7.2
2022-12-25T10:52:20.939Z,7.45
2022-12-25T10:54:20.893Z,7.64
2022-12-25T10:56:21.128Z,7.73
2022-12-25T10:58:20.868Z,7.8
2022-12-25T11:00:20.993Z,7.79
2022-12-25T11:03:23.788Z,7.79
2022-12-25T11:05:23.590Z,7.89
2022-12-25T11:07:23.600Z,8.27
2022-12-25T11:09:23.595Z,8.39
2022-12-25T11:11:23.530Z,8.75
2022-12-25T11:13:23.784Z,9.15
2022-12-25T11:15:23.595Z,9.31
2022-12-25T11:18:32.521Z,9.35
2022-12-25T11:20:32.931Z,9.6
2022-12-25T11:22:32.304Z,9.82
2022-12-25T11:24:32.445Z,9.91
2022-12-25T11:26:32.442Z,9.58
2022-12-25T11:28:32.429Z,9.57
2022-12-25T11:30:32.566Z,9.2
2022-12-25T11:33:45.303Z,9.07
2022-12-25T11:35:45.383Z,9.29
2022-12-25T11:37:45.311Z,9.74
2022-12-25T11:39:45.335Z,10.07
2022-12-25T11:41:45.307Z,9.99
2022-12-25T11:43:45.304Z,9.89
2022-12-25T11:45:45.297Z,9.77
2022-12-25T11:49:16.714Z,9.82
2022-12-25T11:51:16.689Z,10.16
2022-12-25T11:53:16.840Z,10.33
2022-12-25T11:55:16.688Z,10.38
2022-12-25T11:57:16.659Z,10.36
2022-12-25T11:59:18.429Z,10.47
2022-12-25T12:01:16.738Z,10.47
2022-12-25T12:04:21.987Z,10.63
2022-12-25T12:06:19.296Z,10.61
2022-12-25T12:08:19.215Z,10.65
2022-12-25T12:10:19.296Z,10.77
2022-12-25T12:12:19.074Z,10.73
2022-12-25T12:14:19.236Z,10.8
2022-12-25T12:16:19.108Z,10.91
2022-12-25T12:19:39.368Z,10.96
2022-12-25T12:21:39.602Z,11.01
2022-12-25T12:23:39.411Z,11.09
2022-12-25T12:25:39.578Z,11.1
2022-12-25T12:27:39.621Z,11.08
2022-12-25T12:29:39.464Z,11.09
2022-12-25T12:31:39.493Z,11.07
2022-12-25T12:34:27.792Z,10.98
2022-12-25T12:36:35.879Z,10.92
2022-12-25T12:38:27.942Z,10.85
2022-12-25T12:40:27.815Z,10.82
2022-12-25T12:42:27.841Z,10.85
2022-12-25T12:44:28.242Z,10.89
2022-12-25T12:46:31.172Z,10.83
2022-12-25T12:49:35.952Z,10.88
2022-12-25T12:51:35.885Z,10.59
2022-12-25T12:53:35.946Z,10.58
2022-12-25T12:55:35.873Z,10.61
2022-12-25T12:57:35.878Z,10.64
2022-12-25T12:59:35.914Z,10.68
2022-12-25T13:01:36.037Z,10.67
2022-12-25T13:04:42.958Z,10.55
2022-12-25T13:06:42.497Z,10.52
2022-12-25T13:08:42.612Z,10.44
2022-12-25T13:10:42.519Z,10.38
2022-12-25T13:12:42.541Z,10.3
2022-12-25T13:14:42.558Z,10.21
2022-12-25T13:16:42.574Z,10.14
2022-12-25T13:19:53.520Z,10.06
2022-12-25T13:21:53.274Z,10.03
2022-12-25T13:23:53.213Z,9.99
2022-12-25T13:25:53.291Z,9.94
2022-12-25T13:27:53.202Z,9.81
2022-12-25T13:29:53.221Z,9.8
2022-12-25T13:31:53.474Z,9.77
2022-12-25T13:35:06.728Z,9.52
2022-12-25T13:37:06.973Z,9.48
2022-12-25T13:39:06.793Z,9.35
2022-12-25T13:41:06.994Z,9.31
2022-12-25T13:43:06.756Z,9.29
2022-12-25T13:45:07.012Z,9.28
2022-12-25T13:47:07.253Z,9.14
2022-12-25T13:50:42.404Z,8.89
2022-12-25T13:52:42.702Z,8.94
2022-12-25T13:54:42.171Z,8.89
2022-12-25T13:56:43.654Z,8.86
2022-12-25T13:58:42.231Z,8.82
2022-12-25T14:00:42.193Z,8.86
2022-12-25T14:02:42.592Z,8.79
2022-12-25T14:05:39.660Z,8.69
2022-12-25T14:07:32.859Z,8.57
2022-12-25T14:09:33.123Z,8.48
2022-12-25T14:11:32.990Z,8.5
2022-12-25T14:13:33.137Z,8.48
2022-12-25T14:15:32.926Z,8.47
2022-12-25T14:17:32.893Z,8.29
2022-12-25T14:20:47.753Z,8.33
2022-12-25T14:22:47.678Z,8.1
2022-12-25T14:24:47.690Z,8.15
2022-12-25T14:26:47.636Z,8.14
2022-12-25T14:28:47.725Z,8.11
2022-12-25T14:30:47.648Z,7.98
2022-12-25T14:32:47.813Z,7.91
2022-12-25T14:35:49.852Z,7.72
2022-12-25T14:37:49.710Z,7.68
2022-12-25T14:39:49.893Z,7.68
2022-12-25T14:41:49.940Z,7.73
2022-12-25T14:43:49.957Z,7.64
2022-12-25T14:45:49.809Z,7.57
2022-12-25T14:47:49.801Z,7.42
2022-12-25T14:51:19.950Z,7.33
2022-12-25T14:53:20.206Z,7.22
2022-12-25T14:55:20.425Z,7.15
2022-12-25T14:57:20.194Z,7.18
2022-12-25T14:59:20.435Z,7.11
2022-12-25T15:01:20.103Z,7.03
2022-12-25T15:03:20.095Z,6.93
2022-12-25T15:05:56.835Z,6.77
2022-12-25T15:07:56.836Z,6.77
2022-12-25T15:10:18.780Z,6.75
2022-12-25T15:11:56.831Z,6.68
2022-12-25T15:13:56.888Z,6.63
2022-12-25T15:15:56.973Z,6.54
2022-12-25T15:17:56.895Z,6.56
2022-12-25T15:21:17.103Z,6.6
2022-12-25T15:23:20.200Z,6.38
2022-12-25T15:25:16.323Z,6.38
2022-12-25T15:27:16.217Z,6.37
2022-12-25T15:29:16.217Z,6.39
2022-12-25T15:31:16.316Z,6.33
2022-12-25T15:33:16.213Z,6.32
2022-12-25T15:36:48.197Z,6.23
2022-12-25T15:38:48.314Z,6.19
2022-12-25T15:40:48.228Z,6.08
2022-12-25T15:42:48.168Z,5.92
2022-12-25T15:44:48.174Z,6.02
2022-12-25T15:46:48.338Z,6.03
2022-12-25T15:48:48.132Z,6.05
2022-12-25T15:51:22.515Z,5.91
2022-12-25T15:53:22.597Z,5.96
2022-12-25T15:55:23.245Z,5.79
2022-12-25T15:57:22.552Z,5.85
2022-12-25T15:59:22.472Z,5.88
2022-12-25T16:01:22.649Z,5.8
2022-12-25T16:03:22.527Z,5.8
2022-12-25T16:05:22.479Z,5.78
2022-12-25T16:06:51.319Z,5.74
2022-12-25T16:08:51.548Z,5.8
2022-12-25T16:10:51.426Z,5.78
2022-12-25T16:12:51.416Z,5.79
2022-12-25T16:14:51.280Z,5.73
2022-12-25T16:16:51.349Z,5.76
2022-12-25T16:18:51.283Z,5.61
2022-12-25T16:21:35.693Z,5.57
2022-12-25T16:23:35.620Z,5.5
2022-12-25T16:25:36.000Z,5.52
2022-12-25T16:27:35.732Z,5.43
2022-12-25T16:29:35.601Z,5.45
2022-12-25T16:31:35.705Z,5.45
2022-12-25T16:33:35.661Z,5.39
2022-12-25T16:35:35.589Z,5.34
2022-12-25T16:37:20.162Z,5.3
2022-12-25T16:39:20.147Z,5.31
2022-12-25T16:41:20.163Z,5.32
2022-12-25T16:43:23.882Z,5.29
2022-12-25T16:45:20.196Z,5.12
2022-12-25T16:47:20.167Z,5.1
2022-12-25T16:49:20.253Z,5.29
2022-12-25T16:51:58.743Z,5.25
2022-12-25T16:53:58.778Z,5.24
2022-12-25T16:55:58.785Z,5.27
2022-12-25T16:57:58.786Z,5.24
2022-12-25T16:59:58.835Z,5.2
2022-12-25T17:01:58.826Z,5.15
2022-12-25T17:03:58.933Z,5.14
2022-12-25T17:05:58.741Z,5.09
2022-12-25T17:07:04.057Z,5.04
2022-12-25T17:09:04.015Z,5.02
2022-12-25T17:11:04.136Z,4.94
2022-12-25T17:13:04.059Z,4.97
2022-12-25T17:15:03.997Z,4.94
2022-12-25T17:17:04.048Z,5
2022-12-25T17:19:04.362Z,5.05
2022-12-25T17:21:04.064Z,5.04
2022-12-25T17:22:52.818Z,5
2022-12-25T17:24:52.789Z,4.9
2022-12-25T17:26:52.795Z,4.93
2022-12-25T17:28:52.802Z,4.86
2022-12-25T17:30:52.776Z,4.84
2022-12-25T17:32:52.816Z,4.85
2022-12-25T17:34:52.807Z,4.8
2022-12-25T17:38:00.970Z,4.72
2022-12-25T17:40:01.038Z,4.73
2022-12-25T17:42:01.012Z,4.72
2022-12-25T17:44:01.069Z,4.7
2022-12-25T17:46:01.015Z,4.76
2022-12-25T17:48:01.258Z,4.64
2022-12-25T17:50:01.078Z,4.63
2022-12-25T17:52:45.437Z,4.58
2022-12-25T17:54:45.492Z,4.57
2022-12-25T17:56:45.490Z,4.55
2022-12-25T17:58:45.538Z,4.56
2022-12-25T18:00:45.487Z,4.54
2022-12-25T18:02:45.674Z,4.62
2022-12-25T18:04:45.513Z,4.64
2022-12-25T18:08:40.016Z,4.64
2022-12-25T18:10:39.451Z,4.56
2022-12-25T18:12:39.459Z,4.49
2022-12-25T18:14:39.367Z,4.46
2022-12-25T18:16:39.477Z,4.44
2022-12-25T18:18:39.433Z,4.46
2022-12-25T18:20:40.527Z,4.48
2022-12-25T18:23:04.649Z,4.48
2022-12-25T18:25:04.619Z,4.51
2022-12-25T18:27:04.853Z,4.52
2022-12-25T18:29:04.608Z,4.45
2022-12-25T18:31:04.672Z,4.27
2022-12-25T18:33:04.665Z,4.37
2022-12-25T18:35:04.620Z,4.4
2022-12-25T18:38:42.740Z,4.45
2022-12-25T18:40:42.568Z,4.4
2022-12-25T18:42:42.655Z,4.31
2022-12-25T18:44:43.031Z,4.33
2022-12-25T18:46:42.609Z,4.21
2022-12-25T18:48:42.624Z,4.23
2022-12-25T18:50:42.547Z,4.29
2022-12-25T18:53:10.304Z,4.32
2022-12-25T18:55:10.170Z,4.31
2022-12-25T18:57:10.132Z,4.4
2022-12-25T18:59:10.226Z,4.3
2022-12-25T19:01:10.216Z,4.32
2022-12-25T19:03:10.256Z,4.31
2022-12-25T19:05:10.120Z,4.31
2022-12-25T19:07:10.182Z,4.21
2022-12-25T19:09:16.234Z,4.19
2022-12-25T19:11:16.287Z,4.2
2022-12-25T19:13:16.837Z,4.16
2022-12-25T19:15:16.327Z,4.13
2022-12-25T19:17:16.381Z,4.21
2022-12-25T19:19:16.355Z,4.14
2022-12-25T19:21:16.403Z,4.03
2022-12-25T19:24:27.280Z,4.14
2022-12-25T19:26:27.223Z,4.19
2022-12-25T19:28:27.456Z,4.19
2022-12-25T19:30:27.264Z,4.22
2022-12-25T19:32:27.411Z,4.21
2022-12-25T19:34:27.274Z,4.22
2022-12-25T19:36:27.271Z,4.24
2022-12-25T19:39:26.788Z,4.16
2022-12-25T19:41:26.640Z,4.08
2022-12-25T19:43:26.875Z,4.05
2022-12-25T19:45:26.631Z,3.85
2022-12-25T19:47:26.862Z,3.83
2022-12-25T19:49:26.631Z,3.91
2022-12-25T19:51:26.681Z,3.94
2022-12-25T19:54:47.103Z,3.93
2022-12-25T19:56:47.032Z,3.91
2022-12-25T19:58:47.167Z,3.84
2022-12-25T20:00:47.133Z,3.86
2022-12-25T20:02:47.520Z,3.9
2022-12-25T20:04:47.128Z,3.71
2022-12-25T20:06:47.047Z,3.64
2022-12-25T20:09:07.092Z,3.59
2022-12-25T20:11:07.092Z,3.69
2022-12-25T20:13:07.275Z,3.73
2022-12-25T20:15:07.201Z,3.68
2022-12-25T20:17:10.780Z,3.66
2022-12-25T20:19:07.100Z,3.76
2022-12-25T20:21:07.001Z,3.67
2022-12-25T20:23:07.060Z,3.69
2022-12-25T20:24:22.188Z,3.63
2022-12-25T20:26:22.106Z,3.65
2022-12-25T20:28:22.143Z,3.63
2022-12-25T20:30:22.246Z,3.6
2022-12-25T20:32:23.927Z,3.58
2022-12-25T20:34:22.129Z,3.54
2022-12-25T20:36:22.344Z,3.47
2022-12-25T20:39:49.774Z,3.49
2022-12-25T20:41:49.727Z,3.5
2022-12-25T20:43:49.744Z,3.49
2022-12-25T20:45:49.804Z,3.46
2022-12-25T20:47:49.903Z,3.39
2022-12-25T20:49:49.754Z,3.23
2022-12-25T20:51:49.744Z,3.34
2022-12-25T20:54:41.491Z,3.27
2022-12-25T20:56:41.509Z,3.23
2022-12-25T20:58:41.473Z,3.19
2022-12-25T21:00:41.453Z,3.22
2022-12-25T21:02:41.670Z,3.26
2022-12-25T21:04:41.596Z,3.27
2022-12-25T21:06:41.527Z,3.3
2022-12-25T21:09:46.058Z,3.34
2022-12-25T21:11:45.971Z,3.29
2022-12-25T21:13:46.031Z,3.24
2022-12-25T21:15:46.395Z,3.25
2022-12-25T21:17:46.140Z,3.25
2022-12-25T21:19:46.304Z,3.24
2022-12-25T21:21:46.797Z,3.21
2022-12-25T21:23:45.988Z,3.22
2022-12-25T21:25:13.361Z,3.21
2022-12-25T21:27:13.365Z,3.16
2022-12-25T21:29:13.316Z,3.01
2022-12-25T21:31:13.399Z,3.01
2022-12-25T21:33:16.735Z,2.96
2022-12-25T21:35:13.364Z,3.02
2022-12-25T21:37:13.317Z,3.11
2022-12-25T21:40:44.331Z,3.06
2022-12-25T21:42:43.904Z,3.03
2022-12-25T21:44:44.053Z,3
2022-12-25T21:46:44.001Z,2.95
2022-12-25T21:48:43.888Z,2.94
2022-12-25T21:50:43.894Z,2.96
2022-12-25T21:52:43.967Z,2.97
2022-12-25T21:55:48.234Z,2.79
2022-12-25T21:57:48.137Z,2.84
2022-12-25T21:59:48.120Z,2.82
2022-12-25T22:01:48.335Z,2.86
2022-12-25T22:03:48.203Z,2.81
2022-12-25T22:05:48.181Z,2.81
2022-12-25T22:07:48.098Z,2.75
2022-12-25T22:10:48.231Z,2.81
2022-12-25T22:12:47.927Z,2.81
2022-12-25T22:14:50.840Z,2.66
2022-12-25T22:16:48.044Z,2.68
2022-12-25T22:18:48.097Z,2.74
2022-12-25T22:20:47.997Z,2.68
2022-12-25T22:22:48.045Z,2.63
2022-12-25T22:25:54.599Z,2.58
2022-12-25T22:27:54.432Z,2.49
2022-12-25T22:29:54.369Z,2.52
2022-12-25T22:31:54.663Z,2.53
2022-12-25T22:33:54.404Z,2.39
2022-12-25T22:35:54.407Z,2.55
2022-12-25T22:37:54.373Z,2.53
2022-12-25T22:40:40.460Z,2.5
2022-12-25T22:42:40.676Z,2.48
2022-12-25T22:44:40.451Z,2.46
2022-12-25T22:46:40.514Z,2.5
2022-12-25T22:48:40.450Z,2.4
2022-12-25T22:50:40.431Z,2.35
2022-12-25T22:52:40.496Z,2.27
2022-12-25T22:54:40.472Z,2.44
2022-12-25T22:56:10.682Z,2.46
2022-12-25T22:58:10.646Z,2.47
2022-12-25T23:00:10.634Z,2.49
2022-12-25T23:02:10.731Z,2.48
2022-12-25T23:04:10.811Z,2.27
2022-12-25T23:06:10.684Z,2.39
2022-12-25T23:08:10.633Z,2.37
2022-12-25T23:11:13.256Z,2.35
2022-12-25T23:13:13.222Z,2.36
2022-12-25T23:15:13.190Z,2.29
2022-12-25T23:17:13.177Z,2.31
2022-12-25T23:19:13.185Z,2.3
2022-12-25T23:21:13.275Z,2.32
2022-12-25T23:23:13.185Z,2.28
2022-12-25T23:26:06.830Z,2.04
2022-12-25T23:28:06.792Z,2.31
2022-12-25T23:30:06.858Z,2.22
2022-12-25T23:32:06.802Z,2.28
2022-12-25T23:34:06.836Z,2.25
2022-12-25T23:36:06.807Z,2.27
2022-12-25T23:38:06.806Z,2.18
2022-12-25T23:40:06.836Z,2.04
2022-12-25T23:42:02.203Z,2.13
2022-12-25T23:44:02.231Z,2.21
2022-12-25T23:46:02.321Z,2.22
2022-12-25T23:48:02.220Z,2.22
2022-12-25T23:50:02.216Z,2.24
2022-12-25T23:52:02.197Z,2.21
2022-12-25T23:54:02.350Z,2.09
2022-12-25T23:57:19.947Z,2.03
2022-12-25T23:59:20.062Z,1.97
